Winchester, ID

8:25 PM PST on January 30, 2015 (GMT -0800)
ITD Winchester ID US | Change Station
CLOSE
Current Station
Personal Weather Station
Location: ,
Elevation: 3761 ft
Nearby Weather Stations

Elev 3761 ft 46.26 °N, 116.61 °W | Updated 41 minutes ago

Mostly Cloudy
Mostly Cloudy
27 °F
Feels Like 27 °F
N
3
Wind Variable Wind from SE
Gusts 7.0 mph

Today
High -- | Low -- °F
--% Chance of Precip.
Yesterday
High -- | Low -- °F
Precip. -- in
7:11 AM 4:48 PM
Waxing Gibbous, 87% visible
Pressure 30.28 in
Visibility 0.2 miles
Clouds Overcast 200 ft
Windchill 27 °F
Dew Point 27 °F
Humidity 99%
Rainfall 0.00 in
Snow Depth Not available.
UV 0 out of 12
Pollen 2.10 out of 12
Air Quality Not available.
Flu Activity Not available.
METAR KGIC 310415Z AUTO 13005KT 1/4SM OVC002 M02/M03 A3028 RMK AO1 T10211030

More Conditions Fewer Conditions

Pressure 30.28 in
Visibility 0.2 miles
Clouds Overcast 200 ft
Windchill 27 °F
Dew Point 27 °F
Humidity 99%
Rainfall 0.00 in
Snow Depth Not available.
UV 0 out of 12
Pollen 2.10 out of 12
Air Quality Not available.
Flu Activity Not available.
METAR KGIC 310415Z AUTO 13005KT 1/4SM OVC002 M02/M03 A3028 RMK AO1 T10211030

More Conditions Fewer Conditions

10-Day Weather Forecast

Almanac

Astronomy

Jan. 30, 2015 Rise Set
Actual Time
Civil Twilight
Nautical Twilight
Astronomical Twilight
Moon
Length of Visible Light
Length of Day
Tomorrow will be .
, % of the Moon is Illuminated

Today's Extremes

State Highs State Lows

Community

WunderPhotos

Upload Photos

1,791,999 photos uploaded!

WunderBlogs® & News

Nearby

Air Quality

  Air Quality AQ Index Pollutant
Not available.

Snow Depth

Station Depth Elevation

Earthquake Activity

City Distance Mag. Time & Date
Minimum magnitude displayed is 2.5.

Coastal Water Temperatures

Place Temperature

Nearby Weather Stations